Time;durP1;ratioP1;P1;durP2;ratioP2;P2;SDS_P1;SDS_P2;PMS_P1;PMS_P2;Temp;Humidity;BMP_temperature;BMP_pressure;BME280_temperature;BME280_humidity;BME280_pressure;Samples;Min_cycle;Max_cycle;Signal;HPM_P1;HPM_P2
2022/03/15 00:02:12;;;;;;;9.85;4.35;;;17.50;58.00;;;;;;5071843;28;20035;-67
2022/03/15 00:04:38;;;;;;;10.70;4.93;;;18.10;58.30;;;;;;5071989;28;20027;-67
2022/03/15 00:07:04;;;;;;;10.15;4.45;;;21.00;59.90;;;;;;5072201;28;20028;-67
2022/03/15 00:09:29;;;;;;;9.93;3.85;;;18.80;58.80;;;;;;5071895;28;20058;-67
2022/03/15 00:11:55;;;;;;;8.13;4.00;;;20.50;59.70;;;;;;5072084;28;20044;-67
2022/03/15 00:14:21;;;;;;;9.38;4.78;;;22.80;61.00;;;;;;5071746;28;20398;-67
2022/03/15 00:16:47;;;;;;;10.85;4.10;;;19.30;59.20;;;;;;5071800;28;20068;-67
2022/03/15 00:19:13;;;;;;;11.60;4.65;;;19.40;59.10;;;;;;5071858;28;20025;-67
2022/03/15 00:21:39;;;;;;;10.50;3.80;;;19.30;58.90;;;;;;5060213;28;20025;-67
2022/03/15 00:24:06;;;;;;;11.30;4.38;;;19.40;59.00;;;;;;5065405;28;20036;-67
2022/03/15 00:26:33;;;;;;;8.93;4.50;;;20.60;59.30;;;;;;5071690;28;20032;-67
2022/03/15 00:28:58;;;;;;;11.57;4.90;;;18.20;58.10;;;;;;5071752;28;20036;-67
2022/03/15 00:31:24;;;;;;;11.07;4.72;;;17.20;57.90;;;;;;5072195;28;20017;-67
2022/03/15 00:33:50;;;;;;;9.05;4.20;;;21.20;60.00;;;;;;5071980;28;20415;-67
2022/03/15 00:36:16;;;;;;;10.68;4.13;;;20.80;59.80;;;;;;5071913;28;20032;-67
2022/03/15 00:38:42;;;;;;;8.77;4.53;;;17.10;57.90;;;;;;5071890;28;20048;-67
2022/03/15 00:41:08;;;;;;;8.45;4.00;;;19.20;59.10;;;;;;5072324;28;20457;-67
2022/03/15 00:43:34;;;;;;;8.57;4.15;;;18.20;58.20;;;;;;5075756;28;20052;-67
2022/03/15 00:46:00;;;;;;;11.73;5.03;;;17.80;58.20;;;;;;5075567;28;20471;-67
2022/03/15 00:48:26;;;;;;;12.63;4.50;;;22.70;60.90;;;;;;5075555;28;20460;-67
2022/03/15 00:50:52;;;;;;;8.60;4.15;;;19.00;58.90;;;;;;5069194;28;20070;-67
2022/03/15 00:53:18;;;;;;;9.88;4.30;;;19.20;59.00;;;;;;5055483;28;20025;-67
2022/03/15 00:55:44;;;;;;;9.15;4.13;;;18.40;58.70;;;;;;5055629;28;20032;-67
2022/03/15 00:58:11;;;;;;;8.70;4.47;;;16.40;57.70;;;;;;5055145;28;20074;-67
2022/03/15 01:00:36;;;;;;;8.88;4.03;;;16.50;57.80;;;;;;5055484;28;20502;-67
2022/03/15 01:03:03;;;;;;;10.80;3.95;;;18.90;59.00;;;;;;5055279;28;20025;-67
2022/03/15 01:05:29;;;;;;;6.75;4.10;;;17.70;58.10;;;;;;5055018;28;20029;-67
2022/03/15 01:07:55;;;;;;;6.93;3.97;;;20.20;59.70;;;;;;5055349;28;20045;-67
2022/03/15 01:10:21;;;;;;;9.07;4.07;;;19.40;59.40;;;;;;5054922;28;20438;-67
2022/03/15 01:12:47;;;;;;;9.40;4.05;;;18.40;58.70;;;;;;5054955;28;20079;-67
2022/03/15 01:15:13;;;;;;;9.40;4.18;;;22.30;61.00;;;;;;5054767;28;20029;-67
2022/03/15 01:17:39;;;;;;;11.38;4.22;;;19.20;59.30;;;;;;5054614;28;20048;-67
2022/03/15 01:20:06;;;;;;;9.63;4.05;;;16.60;57.90;;;;;;5054793;28;20035;-67
2022/03/15 01:22:32;;;;;;;8.55;4.13;;;22.90;61.00;;;;;;5072714;28;20561;-67
2022/03/15 01:24:57;;;;;;;8.63;3.65;;;19.40;59.50;;;;;;5054636;28;20104;-67
2022/03/15 01:27:23;;;;;;;10.80;3.65;;;19.10;59.40;;;;;;5054846;28;20039;-67
2022/03/15 01:29:49;;;;;;;7.90;3.38;;;19.50;59.60;;;;;;5055003;28;20032;-67
2022/03/15 01:32:16;;;;;;;13.10;4.05;;;18.60;59.00;;;;;;5054730;28;20515;-67
2022/03/15 01:34:42;;;;;;;9.52;3.88;;;19.20;59.40;;;;;;5054723;28;20033;-67
2022/03/15 01:37:07;;;;;;;8.60;3.80;;;17.60;58.50;;;;;;5054902;28;20023;-67
2022/03/15 01:39:33;;;;;;;8.63;3.83;;;18.70;59.20;;;;;;5054339;28;20052;-67
2022/03/15 01:42:00;;;;;;;7.75;3.28;;;17.80;58.70;;;;;;5036412;28;20036;-67
2022/03/15 01:44:26;;;;;;;10.32;4.40;;;16.50;57.90;;;;;;5054415;28;20029;-67
2022/03/15 01:46:53;;;;;;;13.70;4.13;;;17.20;58.40;;;;;;5054145;28;20059;-67
2022/03/15 01:49:19;;;;;;;7.60;4.05;;;19.50;59.50;;;;;;5054437;28;20017;-67
2022/03/15 01:51:46;;;;;;;8.15;3.88;;;23.20;61.50;;;;;;5067230;28;20054;-67
2022/03/15 01:54:13;;;;;;;9.07;4.07;;;20.40;60.10;;;;;;5074322;28;20024;-67
2022/03/15 01:56:40;;;;;;;12.02;4.38;;;22.50;61.20;;;;;;5074064;28;20029;-67
2022/03/15 01:59:14;;;;;;;11.63;4.47;;;19.00;59.40;;;;;;5074156;28;20465;-67
2022/03/15 02:01:41;;;;;;;8.93;3.75;;;19.80;59.40;;;;;;5073986;28;20034;-67
2022/03/15 02:04:08;;;;;;;7.90;3.70;;;19.70;59.50;;;;;;5073683;28;20036;-67
2022/03/15 02:06:38;;;;;;;7.72;3.42;;;19.80;59.60;;;;;;5073961;28;20024;-67
2022/03/15 02:09:13;;;;;;;7.43;3.85;;;21.30;59.30;;;;;;5074123;28;20502;-67
2022/03/15 02:11:46;;;;;;;9.57;4.00;;;22.10;59.50;;;;;;5073927;28;20016;-67
2022/03/15 02:14:12;;;;;;;11.40;4.55;;;21.40;60.40;;;;;;5073672;28;20041;-67
2022/03/15 02:16:38;;;;;;;11.88;4.00;;;17.90;58.80;;;;;;5055717;28;20047;-67
2022/03/15 02:19:04;;;;;;;8.50;3.75;;;18.80;59.10;;;;;;5073430;28;20115;-67
2022/03/15 02:21:30;;;;;;;9.70;3.78;;;19.70;59.40;;;;;;5063020;28;20033;-67
2022/03/15 02:23:56;;;;;;;7.97;3.58;;;18.20;58.90;;;;;;5066093;28;20036;-67
2022/03/15 02:26:22;;;;;;;10.50;3.90;;;18.30;59.10;;;;;;5073617;28;20376;-67
2022/03/15 02:28:48;;;;;;;9.15;3.70;;;19.60;59.80;;;;;;5073795;28;20034;-67
2022/03/15 02:31:14;;;;;;;8.15;3.88;;;19.70;60.00;;;;;;5073346;28;20502;-67
2022/03/15 02:33:40;;;;;;;8.68;3.95;;;17.90;59.10;;;;;;5073709;28;20052;-67
2022/03/15 02:36:05;;;;;;;10.27;3.65;;;20.50;60.30;;;;;;5073259;28;20029;-67
2022/03/15 02:38:31;;;;;;;7.75;3.33;;;19.20;59.70;;;;;;5073264;28;20033;-67
2022/03/15 02:40:58;;;;;;;7.40;3.15;;;19.40;59.70;;;;;;5073283;28;20422;-67
2022/03/15 02:43:24;;;;;;;9.20;3.83;;;18.60;59.30;;;;;;5073046;28;20028;-67
2022/03/15 02:45:50;;;;;;;7.75;3.65;;;20.50;60.20;;;;;;5073109;28;20032;-67
2022/03/15 02:48:15;;;;;;;9.85;3.60;;;19.80;59.80;;;;;;5073284;28;20033;-67
2022/03/15 02:50:41;;;;;;;8.10;3.55;;;18.50;59.10;;;;;;5068774;28;20095;-67
2022/03/15 02:53:08;;;;;;;7.57;3.42;;;18.10;59.00;;;;;;5053362;28;20480;-67
2022/03/15 02:55:34;;;;;;;9.93;3.60;;;23.80;62.20;;;;;;5053392;28;20029;-67
2022/03/15 02:58:00;;;;;;;8.95;3.42;;;19.40;59.70;;;;;;5053104;28;20492;-67
2022/03/15 03:00:27;;;;;;;10.30;3.72;;;19.80;59.80;;;;;;5053391;28;20388;-67
2022/03/15 03:02:54;;;;;;;8.82;3.63;;;23.10;61.70;;;;;;5052863;28;20028;-68
2022/03/15 03:05:19;;;;;;;9.35;3.60;;;19.80;59.60;;;;;;5052354;28;20422;-67
2022/03/15 03:07:45;;;;;;;7.38;3.53;;;23.70;62.00;;;;;;5053009;28;20023;-67
2022/03/15 03:10:12;;;;;;;8.10;3.45;;;23.60;62.00;;;;;;5052887;28;20025;-67
2022/03/15 03:12:41;;;;;;;8.93;3.70;;;20.70;60.00;;;;;;5052992;28;20071;-67
2022/03/15 03:15:12;;;;;;;7.45;3.50;;;19.20;59.40;;;;;;5052586;28;20025;-67
2022/03/15 03:17:41;;;;;;;5.57;2.90;;;19.50;59.00;;;;;;5052448;28;20060;-67
2022/03/15 03:20:12;;;;;;;9.90;3.28;;;23.70;61.90;;;;;;5052655;28;20503;-67
2022/03/15 03:22:41;;;;;;;8.07;3.85;;;20.20;58.70;;;;;;5070158;28;20058;-67
2022/03/15 03:25:07;;;;;;;8.18;3.60;;;16.80;58.10;;;;;;5052274;28;20032;-67
2022/03/15 03:27:33;;;;;;;11.32;3.70;;;20.30;59.90;;;;;;5052384;28;20025;-67
2022/03/15 03:29:59;;;;;;;8.18;3.10;;;21.50;60.60;;;;;;5052469;28;20399;-67
2022/03/15 03:32:26;;;;;;;9.55;3.28;;;20.90;60.30;;;;;;5052351;28;20373;-67
2022/03/15 03:34:53;;;;;;;6.93;3.38;;;22.70;61.50;;;;;;5052559;28;20487;-67
2022/03/15 03:37:19;;;;;;;10.18;3.95;;;20.00;59.60;;;;;;5052493;28;20503;-67
2022/03/15 03:39:44;;;;;;;6.57;3.30;;;19.60;59.70;;;;;;5052207;28;20025;-67
2022/03/15 03:42:10;;;;;;;7.45;3.08;;;18.20;59.00;;;;;;5052095;28;20040;-67
2022/03/15 03:44:38;;;;;;;10.43;3.50;;;20.80;60.30;;;;;;5052482;28;20033;-67
2022/03/15 03:47:04;;;;;;;9.27;3.60;;;23.90;62.20;;;;;;5052424;28;20028;-67
2022/03/15 03:49:31;;;;;;;7.90;3.63;;;21.40;60.40;;;;;;5052429;28;20017;-67
2022/03/15 03:51:58;;;;;;;7.68;3.75;;;20.90;60.50;;;;;;5066983;28;20020;-67
2022/03/15 03:54:24;;;;;;;7.90;3.47;;;19.60;59.80;;;;;;5072115;28;20024;-67
2022/03/15 03:56:50;;;;;;;10.95;3.45;;;20.40;60.00;;;;;;5072481;28;20040;-67
2022/03/15 03:59:17;;;;;;;9.23;3.70;;;23.80;61.80;;;;;;5072171;28;20016;-67
2022/03/15 04:01:43;;;;;;;8.35;3.35;;;19.90;59.80;;;;;;5072501;28;20517;-67
2022/03/15 04:04:10;;;;;;;8.45;3.20;;;20.70;60.00;;;;;;5071813;28;20384;-67
2022/03/15 04:06:37;;;;;;;8.70;3.63;;;19.90;59.60;;;;;;5072121;28;20028;-67
2022/03/15 04:09:04;;;;;;;10.32;3.67;;;17.50;58.20;;;;;;5071931;28;20020;-67
2022/03/15 04:11:31;;;;;;;8.25;3.83;;;23.70;61.50;;;;;;5071974;28;20031;-67
2022/03/15 04:14:00;;;;;;;10.02;3.83;;;17.60;58.40;;;;;;5071818;28;20086;-67
2022/03/15 04:16:26;;;;;;;9.73;3.55;;;18.90;59.00;;;;;;5074677;28;20048;-67
2022/03/15 04:18:53;;;;;;;9.43;3.55;;;18.00;58.50;;;;;;5075917;28;20107;-67
2022/03/15 04:21:22;;;;;;;10.85;3.63;;;18.80;58.80;;;;;;5067436;28;20108;-67
2022/03/15 04:23:48;;;;;;;9.35;3.70;;;21.00;59.90;;;;;;5067212;28;20024;-67
2022/03/15 04:26:14;;;;;;;8.75;3.88;;;23.70;61.50;;;;;;5076224;28;20032;-67
2022/03/15 04:28:39;;;;;;;9.80;3.83;;;21.30;60.20;;;;;;5076158;28;20498;-67
2022/03/15 04:31:05;;;;;;;6.97;3.25;;;22.50;61.00;;;;;;5075615;28;20024;-67
2022/03/15 04:33:31;;;;;;;7.35;3.38;;;19.90;59.30;;;;;;5075918;28;20131;-67
2022/03/15 04:35:56;;;;;;;7.90;3.28;;;19.90;59.40;;;;;;5076023;28;20032;-67
2022/03/15 04:38:22;;;;;;;9.00;3.35;;;21.10;59.90;;;;;;5075549;28;20047;-67
2022/03/15 04:40:48;;;;;;;7.47;3.00;;;18.20;58.40;;;;;;5075842;28;20497;-67
2022/03/15 04:43:13;;;;;;;10.38;3.60;;;16.60;57.40;;;;;;5075357;28;20509;-67
2022/03/15 04:45:40;;;;;;;7.57;2.95;;;19.80;59.00;;;;;;5075417;28;20020;-67
2022/03/15 04:48:06;;;;;;;8.15;3.35;;;17.20;57.60;;;;;;5075333;28;20107;-67
2022/03/15 04:50:32;;;;;;;11.13;4.07;;;20.60;59.50;;;;;;5072378;28;20515;-67
2022/03/15 04:52:57;;;;;;;10.13;3.03;;;19.50;58.80;;;;;;5055401;28;20078;-67
2022/03/15 04:55:24;;;;;;;7.90;3.70;;;16.70;57.40;;;;;;5055183;28;20025;-67
2022/03/15 04:57:49;;;;;;;7.30;3.17;;;23.40;60.90;;;;;;5055254;28;20040;-67
2022/03/15 05:00:16;;;;;;;7.22;3.28;;;23.50;61.10;;;;;;5055306;28;20025;-67
2022/03/15 05:02:44;;;;;;;8.07;3.28;;;18.40;58.10;;;;;;5055355;28;20078;-67
2022/03/15 05:05:12;;;;;;;8.02;3.20;;;18.00;58.00;;;;;;5055181;28;20037;-67
2022/03/15 05:07:38;;;;;;;8.40;3.40;;;19.60;58.60;;;;;;5055105;28;20029;-67
2022/03/15 05:12:48;;;;;;;9.50;3.58;;;21.50;59.70;;;;;;5066055;28;20472;-67
2022/03/15 05:15:14;;;;;;;9.57;3.50;;;20.40;59.20;;;;;;5062343;28;20045;-67
2022/03/15 05:17:40;;;;;;;6.10;2.92;;;23.50;60.70;;;;;;5054834;28;20073;-67
2022/03/15 05:20:07;;;;;;;11.57;3.92;;;19.80;58.90;;;;;;5071684;28;20063;-67
2022/03/15 05:22:33;;;;;;;10.57;4.10;;;19.10;58.20;;;;;;5074087;28;20032;-67
2022/03/15 05:24:59;;;;;;;8.82;3.83;;;20.50;59.20;;;;;;5054586;28;20488;-67
2022/03/15 05:27:26;;;;;;;6.43;3.30;;;17.00;57.40;;;;;;5061221;28;20025;-67
2022/03/15 05:29:52;;;;;;;8.45;3.08;;;21.70;59.70;;;;;;5074940;28;20040;-67
2022/03/15 05:32:19;;;;;;;7.88;3.20;;;21.30;59.60;;;;;;5074883;28;20407;-67
2022/03/15 05:34:45;;;;;;;10.88;3.65;;;19.10;58.80;;;;;;5074525;28;20487;-67
2022/03/15 05:37:11;;;;;;;8.10;3.42;;;18.90;58.50;;;;;;5074694;28;20703;-67
2022/03/15 05:39:37;;;;;;;9.55;3.55;;;22.50;60.50;;;;;;5074679;28;20111;-67
2022/03/15 05:42:03;;;;;;;13.25;4.13;;;17.90;58.10;;;;;;5074252;28;20024;-67
2022/03/15 05:44:29;;;;;;;9.15;3.45;;;18.40;58.30;;;;;;5067350;28;20017;-67
2022/03/15 05:46:55;;;;;;;9.52;3.97;;;19.40;59.00;;;;;;5054124;28;20029;-66
2022/03/15 05:49:21;;;;;;;11.68;3.60;;;16.80;58.00;;;;;;5054395;28;20120;-66
2022/03/15 05:51:47;;;;;;;11.20;3.78;;;17.10;57.80;;;;;;5067588;28;20107;-66
2022/03/15 05:54:12;;;;;;;9.52;3.90;;;19.20;59.30;;;;;;5074553;28;20021;-66
2022/03/15 05:56:39;;;;;;;10.10;3.60;;;20.70;59.70;;;;;;5074439;28;20376;-66
2022/03/15 05:59:06;;;;;;;9.77;3.58;;;19.50;59.10;;;;;;5074314;28;20024;-66
2022/03/15 06:01:32;;;;;;;10.57;4.22;;;17.70;57.90;;;;;;5074155;28;20127;-66
2022/03/15 06:03:57;;;;;;;10.80;3.67;;;20.90;59.80;;;;;;5073829;28;20457;-66
2022/03/15 06:06:24;;;;;;;8.70;3.28;;;20.80;59.80;;;;;;5073964;28;20090;-66
2022/03/15 06:09:14;;;;;;;12.48;3.83;;;19.40;59.00;;;;;;5074069;28;20036;-66
2022/03/15 06:11:40;;;;;;;7.13;3.50;;;19.90;56.50;;;;;;5073890;28;20104;-66
2022/03/15 06:14:07;;;;;;;8.10;3.60;;;17.30;57.80;;;;;;5073854;28;20103;-66
2022/03/15 06:16:33;;;;;;;9.70;3.65;;;20.60;59.30;;;;;;5073290;28;20114;-66
2022/03/15 06:18:59;;;;;;;11.13;3.90;;;20.60;59.50;;;;;;5063863;28;20442;-66
2022/03/15 06:21:24;;;;;;;12.88;3.70;;;20.80;59.70;;;;;;5053290;28;20107;-66
2022/03/15 06:23:53;;;;;;;8.73;4.07;;;19.40;59.00;;;;;;5065727;28;20085;-66
2022/03/15 06:26:20;;;;;;;8.63;3.85;;;16.40;57.20;;;;;;5073153;28;20108;-66
2022/03/15 06:28:46;;;;;;;9.90;3.97;;;20.80;59.60;;;;;;5073558;28;20029;-66
2022/03/15 06:31:14;;;;;;;8.00;3.03;;;21.40;59.70;;;;;;5073353;28;20035;-66
2022/03/15 06:33:41;;;;;;;8.68;3.28;;;19.40;59.00;;;;;;5073470;28;20029;-66
2022/03/15 06:36:11;;;;;;;8.15;3.40;;;18.50;58.60;;;;;;5073289;28;20036;-66
2022/03/15 06:38:41;;;;;;;10.52;3.95;;;17.00;57.90;;;;;;5073579;28;20020;-66
2022/03/15 06:41:07;;;;;;;8.05;3.30;;;19.20;58.90;;;;;;5072975;28;20056;-66
2022/03/15 06:43:34;;;;;;;9.63;3.90;;;19.40;59.10;;;;;;5073706;28;20040;-66
2022/03/15 06:46:01;;;;;;;7.50;3.80;;;20.30;59.70;;;;;;5073101;28;20063;-66
2022/03/15 06:48:27;;;;;;;9.50;3.78;;;17.30;58.30;;;;;;5073050;28;20032;-66
2022/03/15 06:50:54;;;;;;;8.85;3.60;;;22.90;61.00;;;;;;5067087;28;20082;-66
2022/03/15 06:53:20;;;;;;;8.13;2.90;;;20.20;59.60;;;;;;5053022;28;20029;-66
2022/03/15 06:55:46;;;;;;;9.32;3.63;;;19.50;59.40;;;;;;5052993;28;20025;-66
2022/03/15 06:58:12;;;;;;;8.52;3.70;;;19.30;59.30;;;;;;5052826;28;20100;-66
2022/03/15 07:00:38;;;;;;;9.20;3.55;;;20.70;60.00;;;;;;5053012;28;20025;-66
2022/03/15 07:03:05;;;;;;;9.13;3.67;;;22.90;61.20;;;;;;5052744;28;20025;-66
2022/03/15 07:05:30;;;;;;;10.32;3.53;;;17.30;58.10;;;;;;5053144;28;20021;-66
2022/03/15 07:07:56;;;;;;;7.30;3.03;;;16.60;57.90;;;;;;5052621;28;20024;-66
2022/03/15 07:10:22;;;;;;;6.40;3.35;;;18.20;58.70;;;;;;5052705;28;20029;-66
2022/03/15 07:12:48;;;;;;;7.43;2.90;;;17.70;58.50;;;;;;5052736;28;20096;-66
2022/03/15 07:15:14;;;;;;;5.75;3.03;;;19.00;59.10;;;;;;5052727;28;20036;-66
2022/03/15 07:17:50;;;;;;;9.55;3.28;;;20.80;60.00;;;;;;5052665;28;20067;-67
2022/03/15 07:20:16;;;;;;;6.97;3.13;;;19.10;57.10;;;;;;5032932;28;20049;-66
2022/03/15 07:22:42;;;;;;;8.52;3.40;;;22.70;61.20;;;;;;5037494;28;20389;-66
2022/03/15 07:25:08;;;;;;;8.93;3.60;;;20.50;59.80;;;;;;5072695;28;20021;-66
2022/03/15 07:27:34;;;;;;;10.30;3.97;;;19.60;59.10;;;;;;5072416;28;20074;-66
2022/03/15 07:30:00;;;;;;;8.48;3.90;;;19.70;59.50;;;;;;5072824;28;20016;-66
2022/03/15 07:32:26;;;;;;;12.40;4.57;;;19.60;59.40;;;;;;5072466;28;20549;-66
2022/03/15 07:34:52;;;;;;;12.40;4.78;;;23.20;61.50;;;;;;5072658;28;20028;-66
2022/03/15 07:37:18;;;;;;;20.65;6.35;;;20.30;59.70;;;;;;5072491;28;20092;-66
2022/03/15 07:39:45;;;;;;;16.30;5.85;;;17.10;58.10;;;;;;5072270;28;20017;-66
2022/03/15 07:42:11;;;;;;;23.63;7.18;;;19.60;59.40;;;;;;5072061;28;20052;-67
2022/03/15 07:44:37;;;;;;;14.68;5.25;;;23.50;61.60;;;;;;5072598;28;20036;-67
2022/03/15 07:47:03;;;;;;;15.73;5.45;;;18.80;59.10;;;;;;5072448;28;20055;-67
2022/03/15 07:49:32;;;;;;;19.55;7.25;;;23.10;61.20;;;;;;5055787;28;20032;-66
2022/03/15 07:51:59;;;;;;;16.60;5.90;;;18.90;58.00;;;;;;5033347;28;20017;-67
2022/03/15 07:54:25;;;;;;;30.25;11.60;;;18.20;58.30;;;;;;5062131;28;20045;-67
2022/03/15 07:56:52;;;;;;;17.27;6.43;;;19.10;59.30;;;;;;5051543;28;20075;-67
2022/03/15 07:59:18;;;;;;;13.70;6.18;;;21.10;60.30;;;;;;5051811;28;20492;-67
2022/03/15 08:01:44;;;;;;;10.98;4.15;;;23.60;61.60;;;;;;5050265;28;20029;-67
2022/03/15 08:04:10;;;;;;;10.27;4.32;;;20.60;59.70;;;;;;5051312;28;20199;-67
2022/03/15 08:06:36;;;;;;;11.65;4.10;;;17.40;58.00;;;;;;5051766;28;20075;-67
2022/03/15 08:09:03;;;;;;;11.85;4.50;;;18.50;58.70;;;;;;5049869;28;20067;-68
2022/03/15 08:11:29;;;;;;;10.35;3.95;;;19.80;58.90;;;;;;5050410;28;20487;-67
2022/03/15 08:13:56;;;;;;;15.00;5.88;;;17.30;58.00;;;;;;5033690;28;20060;-67
2022/03/15 08:16:22;;;;;;;21.02;8.52;;;19.70;59.40;;;;;;5044669;28;20340;-66
2022/03/15 08:18:53;;;;;;;27.52;11.07;;;20.60;59.80;;;;;;5045952;28;20029;-66
2022/03/15 08:21:19;;;;;;;20.20;7.45;;;19.60;58.20;;;;;;5043492;28;20028;-65
2022/03/15 08:23:46;;;;;;;25.33;11.55;;;23.60;61.60;;;;;;5050644;28;20073;-67
2022/03/15 08:26:13;;;;;;;16.67;6.47;;;18.70;58.80;;;;;;5046904;28;20029;-66
2022/03/15 08:28:42;;;;;;;16.55;6.82;;;18.00;58.30;;;;;;5041226;28;20045;-68
2022/03/15 08:31:08;;;;;;;14.10;4.97;;;19.50;59.20;;;;;;5025112;28;20044;-68
2022/03/15 08:33:36;;;;;;;52.30;27.27;;;20.80;59.70;;;;;;5027831;28;20033;-66
2022/03/15 08:36:03;;;;;;;33.10;16.65;;;23.40;62.80;;;;;;5048415;28;20067;-67
2022/03/15 08:38:29;;;;;;;42.88;22.50;;;19.70;61.50;;;;;;5030710;28;20027;-66
2022/03/15 08:40:56;;;;;;;70.95;35.47;;;21.20;62.80;;;;;;5048686;28;20414;-66
2022/03/15 08:43:24;;;;;;;42.50;23.77;;;21.30;62.90;;;;;;5045951;28;20041;-66
2022/03/15 08:45:50;;;;;;;60.15;30.30;;;18.30;61.40;;;;;;5050447;28;20028;-66
2022/03/15 08:48:16;;;;;;;54.35;26.90;;;19.50;62.50;;;;;;5052638;28;20513;-66
2022/03/15 08:50:42;;;;;;;22.83;11.43;;;21.30;62.40;;;;;;5051557;28;20020;-65
2022/03/15 08:53:07;;;;;;;20.00;9.90;;;17.60;59.00;;;;;;5050196;28;20033;-65
2022/03/15 08:55:35;;;;;;;22.08;9.80;;;19.20;59.70;;;;;;5046970;28;20032;-66
2022/03/15 08:58:02;;;;;;;20.15;9.23;;;20.90;60.60;;;;;;5051264;28;20055;-65
2022/03/15 09:00:27;;;;;;;20.60;7.80;;;22.70;61.60;;;;;;5046954;28;20060;-65
2022/03/15 09:02:56;;;;;;;20.15;8.45;;;20.20;59.80;;;;;;5048869;28;20064;-66
2022/03/15 09:05:22;;;;;;;20.67;7.80;;;17.80;58.30;;;;;;5050003;28;20033;-66
2022/03/15 09:07:51;;;;;;;18.85;7.43;;;23.40;61.50;;;;;;5050506;28;20033;-65
2022/03/15 09:10:18;;;;;;;16.48;7.88;;;20.80;59.90;;;;;;5050434;28;20174;-67
2022/03/15 09:12:47;;;;;;;14.77;7.65;;;18.90;58.80;;;;;;5048880;28;20957;-65
2022/03/15 09:15:16;;;;;;;18.10;7.40;;;23.90;61.70;;;;;;5049462;28;20110;-65
2022/03/15 09:17:42;;;;;;;15.65;7.53;;;18.30;57.70;;;;;;5049853;28;20768;-65
2022/03/15 09:20:09;;;;;;;19.95;6.80;;;20.00;59.80;;;;;;5051808;28;20032;-65
2022/03/15 09:22:35;;;;;;;21.85;7.80;;;18.10;58.50;;;;;;5048773;28;20075;-66
2022/03/15 09:25:02;;;;;;;18.25;7.75;;;23.70;62.00;;;;;;5053710;28;20029;-66
2022/03/15 09:27:28;;;;;;;19.90;7.50;;;21.00;60.20;;;;;;5048672;28;20017;-66
2022/03/15 09:29:54;;;;;;;14.00;6.82;;;23.20;61.70;;;;;;5054964;28;20031;-66
2022/03/15 09:32:21;;;;;;;22.17;7.85;;;17.10;58.30;;;;;;5050715;28;20025;-66
2022/03/15 09:34:47;;;;;;;16.40;7.03;;;18.30;58.70;;;;;;5049733;28;20034;-65
2022/03/15 09:37:13;;;;;;;16.95;7.43;;;20.10;59.80;;;;;;5048839;28;20059;-66
2022/03/15 09:39:39;;;;;;;16.48;6.20;;;20.00;59.60;;;;;;5056582;28;20450;-66
2022/03/15 09:42:10;;;;;;;13.82;6.22;;;19.80;59.60;;;;;;5048983;28;20112;-67
2022/03/15 09:44:39;;;;;;;16.00;6.72;;;21.20;58.90;;;;;;5050221;28;20029;-67
2022/03/15 09:47:08;;;;;;;16.13;7.32;;;20.30;58.90;;;;;;5050993;28;20087;-65
2022/03/15 09:49:35;;;;;;;18.38;7.00;;;20.10;59.40;;;;;;5051760;28;20404;-67
2022/03/15 09:52:04;;;;;;;15.07;6.93;;;20.70;59.70;;;;;;5049637;28;20056;-66
2022/03/15 09:54:30;;;;;;;17.05;7.40;;;21.20;59.60;;;;;;5050729;28;20086;-66
2022/03/15 09:56:57;;;;;;;15.68;7.45;;;18.20;58.60;;;;;;5043565;28;20116;-66
2022/03/15 09:59:27;;;;;;;14.57;6.47;;;21.00;59.90;;;;;;5048009;28;21055;-67
2022/03/15 10:01:59;;;;;;;15.68;6.32;;;17.90;58.00;;;;;;5049511;28;20039;-69
2022/03/15 10:04:26;;;;;;;21.13;7.70;;;23.40;60.80;;;;;;5051268;28;20017;-67
2022/03/15 10:06:54;;;;;;;17.23;7.68;;;17.80;58.10;;;;;;5050535;28;20025;-67
2022/03/15 10:09:21;;;;;;;14.90;6.32;;;17.20;57.80;;;;;;5046264;28;20025;-65
2022/03/15 10:11:47;;;;;;;20.38;7.72;;;17.50;58.10;;;;;;5051653;28;20025;-66
2022/03/15 10:14:14;;;;;;;18.60;6.93;;;22.90;61.20;;;;;;5049209;28;20046;-65
2022/03/15 10:16:42;;;;;;;17.67;6.80;;;19.90;59.60;;;;;;5050228;28;20045;-66
2022/03/15 10:19:13;;;;;;;25.83;7.25;;;19.70;58.80;;;;;;5050049;28;20029;-67
2022/03/15 10:21:45;;;;;;;18.08;7.40;;;20.40;58.30;;;;;;5050105;28;20071;-67
2022/03/15 10:24:24;;;;;;;19.55;7.60;;;21.10;60.10;;;;;;5061494;28;20056;-67
2022/03/15 10:26:55;;;;;;;18.05;7.35;;;20.10;57.40;;;;;;5051264;28;20365;-66
2022/03/15 10:29:23;;;;;;;18.65;7.70;;;20.40;58.50;;;;;;5043743;28;20032;-65
2022/03/15 10:31:51;;;;;;;19.00;7.20;;;19.60;59.10;;;;;;5053662;28;20025;-65
2022/03/15 10:34:19;;;;;;;20.63;7.95;;;19.20;59.00;;;;;;5048316;28;20055;-66
2022/03/15 10:36:47;;;;;;;21.50;7.57;;;20.20;58.90;;;;;;5044152;28;20033;-69
2022/03/15 10:39:16;;;;;;;17.88;7.22;;;23.30;60.90;;;;;;5048375;28;20028;-66
2022/03/15 10:41:50;;;;;;;17.02;7.45;;;21.40;59.60;;;;;;5048418;28;20040;-66
2022/03/15 10:44:25;;;;;;;18.45;6.47;;;21.30;58.70;;;;;;5048266;28;20029;-65
2022/03/15 10:47:06;;;;;;;18.13;6.63;;;20.40;58.70;;;;;;5054511;28;20052;-66
2022/03/15 10:49:48;;;;;;;22.45;7.43;;;19.80;57.60;;;;;;5055405;28;20440;-67
2022/03/15 10:52:35;;;;;;;16.02;7.18;;;23.20;58.90;;;;;;5054665;28;20029;-66
2022/03/15 10:55:16;;;;;;;17.67;6.72;;;18.30;58.30;;;;;;5044470;28;20041;-66
2022/03/15 10:57:48;;;;;;;16.95;6.78;;;20.10;57.30;;;;;;5031548;28;20025;-66
2022/03/15 11:00:16;;;;;;;16.60;6.80;;;18.00;57.20;;;;;;5048569;28;20106;-66
2022/03/15 11:02:43;;;;;;;19.55;6.40;;;19.20;58.70;;;;;;5048506;28;20019;-66
2022/03/15 11:05:09;;;;;;;18.25;6.85;;;23.60;61.30;;;;;;5047384;28;20021;-66
2022/03/15 11:07:39;;;;;;;25.15;8.05;;;21.10;60.20;;;;;;5049099;28;20508;-66
2022/03/15 11:10:10;;;;;;;17.92;7.28;;;20.30;58.50;;;;;;5041763;28;20033;-66
2022/03/15 11:12:36;;;;;;;12.90;7.07;;;19.80;58.20;;;;;;5045865;28;20025;-65
2022/03/15 11:15:02;;;;;;;19.17;7.53;;;21.60;60.70;;;;;;5032335;28;20031;-66
2022/03/15 11:17:28;;;;;;;21.73;7.10;;;18.60;59.20;;;;;;5047056;28;20041;-67
2022/03/15 11:20:02;;;;;;;16.35;7.25;;;19.10;59.10;;;;;;5049209;28;20116;-68
2022/03/15 11:22:31;;;;;;;22.25;7.25;;;20.40;58.30;;;;;;5046858;28;20064;-67
2022/03/15 11:25:12;;;;;;;17.95;7.07;;;19.10;57.90;;;;;;5049101;28;20017;-69
2022/03/15 11:27:45;;;;;;;19.60;7.43;;;22.90;59.30;;;;;;5047303;28;20775;-68
2022/03/15 11:30:17;;;;;;;17.73;6.85;;;22.00;59.00;;;;;;5046271;28;20029;-67
2022/03/15 11:32:43;;;;;;;21.20;7.20;;;19.90;58.40;;;;;;5052250;28;20067;-66
2022/03/15 11:35:12;;;;;;;22.35;7.93;;;23.90;62.00;;;;;;5055599;28;20017;-68
2022/03/15 11:37:40;;;;;;;16.17;6.53;;;21.90;60.10;;;;;;5047774;28;20017;-65
2022/03/15 11:40:12;;;;;;;15.63;7.03;;;20.50;60.00;;;;;;5040079;28;20037;-66
2022/03/15 11:42:44;;;;;;;20.88;7.25;;;21.10;59.70;;;;;;5046136;28;20123;-66
2022/03/15 11:45:13;;;;;;;18.73;6.90;;;20.70;59.10;;;;;;5027614;28;20048;-66
2022/03/15 11:47:47;;;;;;;15.32;6.32;;;21.40;60.70;;;;;;5048129;28;20052;-66
2022/03/15 11:50:31;;;;;;;19.33;7.73;;;18.70;58.50;;;;;;5047631;28;20090;-65
2022/03/15 11:53:15;;;;;;;26.30;7.78;;;19.90;57.70;;;;;;5052456;28;20021;-66
2022/03/15 11:55:50;;;;;;;18.50;7.20;;;19.60;58.30;;;;;;5042285;28;20029;-65
2022/03/15 11:58:32;;;;;;;22.90;7.38;;;17.80;58.00;;;;;;5049460;28;20021;-66
2022/03/15 12:01:12;;;;;;;22.00;7.70;;;22.10;59.20;;;;;;5048615;28;20032;-66
2022/03/15 12:03:52;;;;;;;23.25;6.95;;;20.70;58.70;;;;;;5040153;28;20446;-67
2022/03/15 12:06:22;;;;;;;19.40;6.90;;;22.60;59.70;;;;;;5047213;28;20028;-67
2022/03/15 12:08:54;;;;;;;20.08;6.93;;;17.80;59.10;;;;;;5047900;28;20047;-67
2022/03/15 12:11:38;;;;;;;22.42;6.93;;;21.70;60.30;;;;;;5046801;28;20033;-67
2022/03/15 12:14:11;;;;;;;24.35;7.93;;;23.30;60.10;;;;;;5046071;28;20415;-68
2022/03/15 12:16:53;;;;;;;21.80;6.82;;;20.90;60.40;;;;;;5046557;28;20091;-68
2022/03/15 12:19:37;;;;;;;24.67;7.47;;;20.70;59.80;;;;;;5040841;28;20083;-68
2022/03/15 12:22:08;;;;;;;16.20;7.45;;;20.50;61.40;;;;;;5044861;28;20981;-68
2022/03/15 12:24:39;;;;;;;22.83;7.57;;;20.80;61.00;;;;;;5052670;28;20108;-68
2022/03/15 12:27:18;;;;;;;20.30;7.15;;;23.00;63.10;;;;;;5047415;28;20040;-68
2022/03/15 12:29:55;;;;;;;24.38;7.72;;;20.80;59.90;;;;;;5049471;28;20021;-68
2022/03/15 12:32:22;;;;;;;21.90;7.90;;;18.90;59.10;;;;;;5042581;28;20029;-68
2022/03/15 12:34:55;;;;;;;20.33;7.30;;;20.50;62.50;;;;;;5047696;28;20507;-68
2022/03/15 12:37:36;;;;;;;21.85;8.88;;;22.00;62.50;;;;;;5050874;28;20032;-68
2022/03/15 12:40:10;;;;;;;18.25;7.72;;;20.90;60.60;;;;;;5052448;28;20594;-68
2022/03/15 12:42:37;;;;;;;23.48;8.57;;;18.40;60.80;;;;;;5051986;28;20054;-68
2022/03/15 12:45:11;;;;;;;26.02;7.97;;;19.00;62.00;;;;;;5049842;28;20086;-68
2022/03/15 12:47:48;;;;;;;22.15;7.70;;;19.10;60.50;;;;;;5052178;28;20399;-68